Aviation Digital Data Service (ADDS)

Output produced by METARs form (0734 UTC 18 October 2017)
found at http://www.aviationweather.gov/adds/metars/
 
KUCP 180656Z AUTO 00000KT 10SM CLR 07/04 A3031 RMK AO2 SLP279 T00720039
KUCP 180556Z AUTO 00000KT 10SM CLR 08/04 A3030 RMK AO2 SLP278 T00830044 10128 20083 53004
KUCP 180456Z AUTO 20004KT 10SM CLR 10/04 A3029 RMK AO2 SLP273 T01000044 401721011
KUCP 180356Z AUTO 20005KT 10SM CLR 10/04 A3029 RMK AO2 SLP275 T01000044
KUCP 180256Z AUTO 20003KT 10SM CLR 08/04 A3029 RMK AO2 SLP275 T00830044 53013
KUCP 180156Z AUTO VRB03KT 10SM CLR 11/04 A3027 RMK AO2 SLP271 T01110044
KUCP 180056Z AUTO 19004KT 10SM CLR 12/04 A3026 RMK AO2 SLP267 T01170044
KUCP 172356Z AUTO 19004KT 10SM CLR 13/04 A3025 RMK AO2 SLP265 T01280039 10172 20128 53004
KUCP 172256Z AUTO 21004KT 10SM CLR 13/04 A3024 RMK AO2 SLP262 T01330039 TSNO
KUCP 172156Z AUTO 23006KT 10SM CLR 16/03 A3024 RMK AO2 SLP260 T01610033
KUCP 171956Z AUTO 23008G15KT 10SM CLR 17/03 A3025 RMK AO2 SLP264 T01720033
KUCP 171856Z AUTO 24007KT 10SM CLR 17/04 A3026 RMK AO2 SLP268 T01720039
KUCP 171756Z AUTO 24011KT 10SM CLR 16/03 A3029 RMK AO2 SLP276 T01610033 10167 21011 58018
KUCP 171656Z AUTO 25008G14KT 10SM CLR 16/04 A3031 RMK AO2 SLP284 T01560039
KUCP 171556Z AUTO 23007KT 10SM CLR 14/04 A3033 RMK AO2 SLP290 T01390039
KUCP 171456Z AUTO 20006KT 10SM CLR 11/04 A3034 RMK AO2 SLP296 T01110039 58002
KUCP 171356Z AUTO 22004KT 10SM CLR 07/03 A3035 RMK AO2 SLP301 T00720033
KUCP 171256Z AUTO 00000KT 10SM CLR 02/02 A3036 RMK AO2 SLP304 T00220017
KUCP 171156Z AUTO 00000KT 10SM CLR M01/M02 A3035 RMK AO2 SLP301 T10111017 10000 21011 51008
KUCP 171056Z AUTO 00000KT 10SM CLR M01/M02 A3034 RMK AO2 SLP298 T10111017
KUCP 170956Z AUTO 00000KT 10SM CLR M01/M02 A3034 RMK AO2 SLP296 T10111017
KUCP 170856Z AUTO 00000KT 10SM CLR M01/M01 A3032 RMK AO2 SLP290 T10061011 53005
KUCP 170756Z AUTO 00000KT 10SM CLR M01/M01 A3031 RMK AO2 SLP286 T10061011